<?xml version="1.0" encoding="UTF-8" standalone="no" ?>
<gpx xmlns="http://www.topografix.com/GPX/1/1" xmlns:xsi="http://www.w3.org/2001/XMLSchema-instance" xsi:schemaLocation="http://www.topografix.com/GPX/1/1 http://www.topografix.com/GPX/1/1/gpx.xsd" version="1.1" creator="VisuGPX - https://www.visugpx.com">
  <metadata>
    <name>GR10 ~ 42 étape - Refuge du Rulhe / Mérens-les-Vals</name>
  </metadata>
  <wpt lat="42.63806" lon="1.72581">
    <ele>2188.8</ele>
    <name><![CDATA[Refuge du Rulhe]]></name>
    <desc><![CDATA[1/2 pension
Alt: 2188.8m]]></desc>
    <link href="https://www.rulhe.com/"></link>
    <cmt><![CDATA[+33 5 61 65 65 01]]></cmt>
    <type><![CDATA[refuge]]></type>
  </wpt>
  <wpt lat="42.6363" lon="1.74085">
    <ele>2318.3</ele>
    <name><![CDATA[Col des Calmettes]]></name>
    <desc><![CDATA[Alt: 2318.3m]]></desc>
    <type><![CDATA[col]]></type>
  </wpt>
  <wpt lat="42.63783" lon="1.76572">
    <ele>2426.4</ele>
    <name><![CDATA[Pyramide de Lherbes]]></name>
    <desc><![CDATA[Alt: 2426.4m]]></desc>
    <type><![CDATA[sommet]]></type>
  </wpt>
  <wpt lat="42.65627" lon="1.84305">
    <ele>1141.9</ele>
    <name><![CDATA[Mérens-les-Vals]]></name>
    <desc><![CDATA[Auberge du Nabre
Journées de repos
Alt: 1143.6m]]></desc>
    <type><![CDATA[hotel]]></type>
  </wpt>
  <trk>
    <name><![CDATA[GR10 ~ 42 étape - Refuge du Rulhe / Mérens-les-Vals_1]]></name>
    <desc><![CDATA[]]></desc>
    <trkseg>
      <trkpt lat="42.63806" lon="1.7259">
        <ele>2189.5</ele>
      </trkpt>
      <trkpt lat="42.63807" lon="1.726">
        <ele>2190.2</ele>
      </trkpt>
      <trkpt lat="42.63796" lon="1.72597">
        <ele>2190.1</ele>
      </trkpt>
      <trkpt lat="42.63787" lon="1.72617">
        <ele>2193</ele>
      </trkpt>
      <trkpt lat="42.63787" lon="1.7262">
        <ele>2193.4</ele>
        <extensions>
          <visugpx:TrkExtension xmlns:visugpx="https://www.visugpx.com/editgpx/">
            <visugpx:node>1</visugpx:node>
            </visugpx:TrkExtension>
        </extensions>
      </trkpt>
      <trkpt lat="42.63788" lon="1.7263">
        <ele>2253</ele>
        <time>2024-08-14T07:34:49+02:00</time>
      </trkpt>
      <trkpt lat="42.63773" lon="1.7269">
        <ele>2263</ele>
        <time>2024-08-14T07:35:47+02:00</time>
      </trkpt>
      <trkpt lat="42.63768" lon="1.72755">
        <ele>2265</ele>
        <time>2024-08-14T07:37:30+02:00</time>
      </trkpt>
      <trkpt lat="42.63767" lon="1.72815">
        <ele>2268</ele>
        <time>2024-08-14T07:38:12+02:00</time>
      </trkpt>
      <trkpt lat="42.63777" lon="1.72875">
        <ele>2272</ele>
        <time>2024-08-14T07:38:54+02:00</time>
      </trkpt>
      <trkpt lat="42.63789" lon="1.72937">
        <ele>2276</ele>
        <time>2024-08-14T07:39:42+02:00</time>
      </trkpt>
      <trkpt lat="42.63793" lon="1.73001">
        <ele>2281</ele>
        <time>2024-08-14T07:40:30+02:00</time>
      </trkpt>
      <trkpt lat="42.63803" lon="1.73055">
        <ele>2286</ele>
        <time>2024-08-14T07:41:18+02:00</time>
      </trkpt>
      <trkpt lat="42.63806" lon="1.73113">
        <ele>2292</ele>
        <time>2024-08-14T07:42:00+02:00</time>
      </trkpt>
      <trkpt lat="42.63801" lon="1.73184">
        <ele>2294</ele>
        <time>2024-08-14T07:42:42+02:00</time>
      </trkpt>
      <trkpt lat="42.63809" lon="1.73241">
        <ele>2301</ele>
        <time>2024-08-14T07:43:30+02:00</time>
      </trkpt>
      <trkpt lat="42.63809" lon="1.73297">
        <ele>2310</ele>
        <time>2024-08-14T07:44:31+02:00</time>
      </trkpt>
      <trkpt lat="42.63807" lon="1.73359">
        <ele>2318</ele>
        <time>2024-08-14T07:46:18+02:00</time>
      </trkpt>
      <trkpt lat="42.63797" lon="1.73423">
        <ele>2329</ele>
        <time>2024-08-14T07:47:21+02:00</time>
      </trkpt>
      <trkpt lat="42.63793" lon="1.73489">
        <ele>2336</ele>
        <time>2024-08-14T07:48:16+02:00</time>
      </trkpt>
      <trkpt lat="42.63796" lon="1.73546">
        <ele>2346</ele>
        <time>2024-08-14T07:49:10+02:00</time>
      </trkpt>
      <trkpt lat="42.63802" lon="1.73604">
        <ele>2359</ele>
        <time>2024-08-14T07:49:52+02:00</time>
      </trkpt>
      <trkpt lat="42.63804" lon="1.73664">
        <ele>2365</ele>
        <time>2024-08-14T07:50:46+02:00</time>
      </trkpt>
      <trkpt lat="42.6379" lon="1.7372">
        <ele>2372</ele>
        <time>2024-08-14T07:51:57+02:00</time>
      </trkpt>
      <trkpt lat="42.63778" lon="1.73776">
        <ele>2381</ele>
        <time>2024-08-14T07:54:27+02:00</time>
      </trkpt>
      <trkpt lat="42.63765" lon="1.73835">
        <ele>2383</ele>
        <time>2024-08-14T07:55:33+02:00</time>
      </trkpt>
      <trkpt lat="42.63753" lon="1.73889">
        <ele>2383</ele>
        <time>2024-08-14T07:56:51+02:00</time>
      </trkpt>
      <trkpt lat="42.63737" lon="1.7394">
        <ele>2382</ele>
        <time>2024-08-14T07:58:02+02:00</time>
      </trkpt>
      <trkpt lat="42.63719" lon="1.73991">
        <ele>2379</ele>
        <time>2024-08-14T07:59:08+02:00</time>
      </trkpt>
      <trkpt lat="42.63688" lon="1.74037">
        <ele>2375</ele>
        <time>2024-08-14T08:00:08+02:00</time>
      </trkpt>
      <trkpt lat="42.63675" lon="1.74095">
        <ele>2368</ele>
        <time>2024-08-14T08:05:34+02:00</time>
      </trkpt>
      <trkpt lat="42.63715" lon="1.74078">
        <ele>2361</ele>
        <time>2024-08-14T08:09:50+02:00</time>
      </trkpt>
      <trkpt lat="42.63739" lon="1.74128">
        <ele>2356</ele>
        <time>2024-08-14T08:10:45+02:00</time>
      </trkpt>
      <trkpt lat="42.63751" lon="1.74183">
        <ele>2349</ele>
        <time>2024-08-14T08:11:56+02:00</time>
      </trkpt>
      <trkpt lat="42.63772" lon="1.74235">
        <ele>2343</ele>
        <time>2024-08-14T08:13:38+02:00</time>
      </trkpt>
      <trkpt lat="42.63779" lon="1.74294">
        <ele>2337</ele>
        <time>2024-08-14T08:14:40+02:00</time>
      </trkpt>
      <trkpt lat="42.63787" lon="1.7435">
        <ele>2333</ele>
        <time>2024-08-14T08:16:09+02:00</time>
      </trkpt>
      <trkpt lat="42.63793" lon="1.74409">
        <ele>2328</ele>
        <time>2024-08-14T08:17:15+02:00</time>
      </trkpt>
      <trkpt lat="42.63779" lon="1.74463">
        <ele>2324</ele>
        <time>2024-08-14T08:18:08+02:00</time>
      </trkpt>
      <trkpt lat="42.6379" lon="1.74523">
        <ele>2318</ele>
        <time>2024-08-14T08:19:28+02:00</time>
      </trkpt>
      <trkpt lat="42.638" lon="1.74582">
        <ele>2313</ele>
        <time>2024-08-14T08:20:58+02:00</time>
      </trkpt>
      <trkpt lat="42.63785" lon="1.74634">
        <ele>2310</ele>
        <time>2024-08-14T08:21:56+02:00</time>
      </trkpt>
      <trkpt lat="42.63784" lon="1.74693">
        <ele>2306</ele>
        <time>2024-08-14T08:22:58+02:00</time>
      </trkpt>
      <trkpt lat="42.63787" lon="1.74755">
        <ele>2302</ele>
        <time>2024-08-14T08:24:09+02:00</time>
      </trkpt>
      <trkpt lat="42.63799" lon="1.74809">
        <ele>2297</ele>
        <time>2024-08-14T08:25:22+02:00</time>
      </trkpt>
      <trkpt lat="42.63838" lon="1.74837">
        <ele>2291</ele>
        <time>2024-08-14T08:26:58+02:00</time>
      </trkpt>
      <trkpt lat="42.63846" lon="1.74892">
        <ele>2287</ele>
        <time>2024-08-14T08:27:57+02:00</time>
      </trkpt>
      <trkpt lat="42.63831" lon="1.74947">
        <ele>2284</ele>
        <time>2024-08-14T08:29:04+02:00</time>
      </trkpt>
      <trkpt lat="42.6381" lon="1.75006">
        <ele>2281</ele>
        <time>2024-08-14T08:30:04+02:00</time>
      </trkpt>
      <trkpt lat="42.63778" lon="1.75051">
        <ele>2280</ele>
        <time>2024-08-14T08:31:29+02:00</time>
      </trkpt>
      <trkpt lat="42.638" lon="1.751">
        <ele>2278</ele>
        <time>2024-08-14T08:34:04+02:00</time>
      </trkpt>
      <trkpt lat="42.63825" lon="1.75152">
        <ele>2278</ele>
        <time>2024-08-14T08:35:22+02:00</time>
      </trkpt>
      <trkpt lat="42.63815" lon="1.75213">
        <ele>2277</ele>
        <time>2024-08-14T08:36:58+02:00</time>
      </trkpt>
      <trkpt lat="42.63775" lon="1.75212">
        <ele>2273</ele>
        <time>2024-08-14T08:38:06+02:00</time>
      </trkpt>
      <trkpt lat="42.63734" lon="1.75222">
        <ele>2273</ele>
        <time>2024-08-14T08:39:00+02:00</time>
      </trkpt>
      <trkpt lat="42.63695" lon="1.75251">
        <ele>2271</ele>
        <time>2024-08-14T08:40:18+02:00</time>
      </trkpt>
      <trkpt lat="42.63668" lon="1.75294">
        <ele>2270</ele>
        <time>2024-08-14T08:41:36+02:00</time>
      </trkpt>
      <trkpt lat="42.63635" lon="1.75325">
        <ele>2269</ele>
        <time>2024-08-14T08:43:06+02:00</time>
      </trkpt>
      <trkpt lat="42.6361" lon="1.75378">
        <ele>2263</ele>
        <time>2024-08-14T08:44:10+02:00</time>
      </trkpt>
      <trkpt lat="42.63579" lon="1.75426">
        <ele>2263</ele>
        <time>2024-08-14T08:46:33+02:00</time>
      </trkpt>
      <trkpt lat="42.63562" lon="1.75478">
        <ele>2264</ele>
        <time>2024-08-14T08:47:13+02:00</time>
      </trkpt>
      <trkpt lat="42.63524" lon="1.755">
        <ele>2262</ele>
        <time>2024-08-14T08:48:07+02:00</time>
      </trkpt>
      <trkpt lat="42.63493" lon="1.75541">
        <ele>2267</ele>
        <time>2024-08-14T08:48:48+02:00</time>
      </trkpt>
      <trkpt lat="42.63466" lon="1.75587">
        <ele>2270</ele>
        <time>2024-08-14T08:50:38+02:00</time>
      </trkpt>
      <trkpt lat="42.63475" lon="1.75646">
        <ele>2277</ele>
        <time>2024-08-14T08:52:20+02:00</time>
      </trkpt>
      <trkpt lat="42.63494" lon="1.75695">
        <ele>2287</ele>
        <time>2024-08-14T08:54:03+02:00</time>
      </trkpt>
      <trkpt lat="42.63501" lon="1.75752">
        <ele>2294</ele>
        <time>2024-08-14T08:55:33+02:00</time>
      </trkpt>
      <trkpt lat="42.635" lon="1.75807">
        <ele>2304</ele>
        <time>2024-08-14T08:58:15+02:00</time>
      </trkpt>
      <trkpt lat="42.63493" lon="1.75863">
        <ele>2311</ele>
        <time>2024-08-14T09:00:33+02:00</time>
      </trkpt>
      <trkpt lat="42.63461" lon="1.75898">
        <ele>2316</ele>
        <time>2024-08-14T09:04:13+02:00</time>
      </trkpt>
      <trkpt lat="42.63417" lon="1.75888">
        <ele>2320</ele>
        <time>2024-08-14T09:05:07+02:00</time>
      </trkpt>
      <trkpt lat="42.63446" lon="1.7593">
        <ele>2322</ele>
        <time>2024-08-14T09:08:07+02:00</time>
      </trkpt>
      <trkpt lat="42.63476" lon="1.75969">
        <ele>2323</ele>
        <time>2024-08-14T09:09:48+02:00</time>
      </trkpt>
      <trkpt lat="42.63498" lon="1.76019">
        <ele>2323</ele>
        <time>2024-08-14T09:11:22+02:00</time>
      </trkpt>
      <trkpt lat="42.63535" lon="1.76045">
        <ele>2324</ele>
        <time>2024-08-14T09:12:31+02:00</time>
      </trkpt>
      <trkpt lat="42.63568" lon="1.76079">
        <ele>2327</ele>
        <time>2024-08-14T09:13:47+02:00</time>
      </trkpt>
      <trkpt lat="42.63542" lon="1.76121">
        <ele>2333</ele>
        <time>2024-08-14T09:14:52+02:00</time>
      </trkpt>
      <trkpt lat="42.63559" lon="1.76174">
        <ele>2343</ele>
        <time>2024-08-14T09:15:58+02:00</time>
      </trkpt>
      <trkpt lat="42.63596" lon="1.76205">
        <ele>2356</ele>
        <time>2024-08-14T09:17:58+02:00</time>
      </trkpt>
      <trkpt lat="42.63622" lon="1.76262">
        <ele>2371</ele>
        <time>2024-08-14T09:20:00+02:00</time>
      </trkpt>
      <trkpt lat="42.63644" lon="1.76315">
        <ele>2387</ele>
        <time>2024-08-14T09:21:53+02:00</time>
      </trkpt>
      <trkpt lat="42.63685" lon="1.76324">
        <ele>2402</ele>
        <time>2024-08-14T09:23:11+02:00</time>
      </trkpt>
      <trkpt lat="42.63728" lon="1.76321">
        <ele>2416</ele>
        <time>2024-08-14T09:29:23+02:00</time>
      </trkpt>
      <trkpt lat="42.63753" lon="1.76365">
        <ele>2429</ele>
        <time>2024-08-14T09:30:54+02:00</time>
      </trkpt>
      <trkpt lat="42.63759" lon="1.7642">
        <ele>2444</ele>
        <time>2024-08-14T09:33:18+02:00</time>
      </trkpt>
      <trkpt lat="42.63798" lon="1.76444">
        <ele>2454</ele>
        <time>2024-08-14T09:35:35+02:00</time>
      </trkpt>
      <trkpt lat="42.63831" lon="1.76483">
        <ele>2456</ele>
        <time>2024-08-14T09:37:05+02:00</time>
      </trkpt>
      <trkpt lat="42.63797" lon="1.76515">
        <ele>2457</ele>
        <time>2024-08-14T09:39:35+02:00</time>
      </trkpt>
      <trkpt lat="42.63759" lon="1.76536">
        <ele>2456</ele>
        <time>2024-08-14T09:42:13+02:00</time>
      </trkpt>
      <trkpt lat="42.63784" lon="1.76581">
        <ele>2455</ele>
        <time>2024-08-14T09:45:23+02:00</time>
      </trkpt>
      <trkpt lat="42.63804" lon="1.76637">
        <ele>2448</ele>
        <time>2024-08-14T09:53:00+02:00</time>
      </trkpt>
      <trkpt lat="42.6383" lon="1.7669">
        <ele>2438</ele>
        <time>2024-08-14T09:53:42+02:00</time>
      </trkpt>
      <trkpt lat="42.63867" lon="1.76732">
        <ele>2432</ele>
        <time>2024-08-14T09:54:24+02:00</time>
      </trkpt>
      <trkpt lat="42.63823" lon="1.7675">
        <ele>2423</ele>
        <time>2024-08-14T09:56:00+02:00</time>
      </trkpt>
      <trkpt lat="42.63782" lon="1.76734">
        <ele>2419</ele>
        <time>2024-08-14T09:56:43+02:00</time>
      </trkpt>
      <trkpt lat="42.63748" lon="1.76696">
        <ele>2413</ele>
        <time>2024-08-14T09:57:19+02:00</time>
      </trkpt>
      <trkpt lat="42.63705" lon="1.7668">
        <ele>2404</ele>
        <time>2024-08-14T09:58:07+02:00</time>
      </trkpt>
      <trkpt lat="42.63664" lon="1.76669">
        <ele>2395</ele>
        <time>2024-08-14T09:58:42+02:00</time>
      </trkpt>
      <trkpt lat="42.63668" lon="1.76728">
        <ele>2383</ele>
        <time>2024-08-14T09:59:43+02:00</time>
      </trkpt>
      <trkpt lat="42.63692" lon="1.7678">
        <ele>2373</ele>
        <time>2024-08-14T10:00:37+02:00</time>
      </trkpt>
      <trkpt lat="42.63703" lon="1.76836">
        <ele>2361</ele>
        <time>2024-08-14T10:01:30+02:00</time>
      </trkpt>
      <trkpt lat="42.63731" lon="1.76884">
        <ele>2347</ele>
        <time>2024-08-14T10:02:36+02:00</time>
      </trkpt>
      <trkpt lat="42.63751" lon="1.76938">
        <ele>2332</ele>
        <time>2024-08-14T10:03:37+02:00</time>
      </trkpt>
      <trkpt lat="42.63773" lon="1.76991">
        <ele>2318</ele>
        <time>2024-08-14T10:09:06+02:00</time>
      </trkpt>
      <trkpt lat="42.63781" lon="1.77046">
        <ele>2305</ele>
        <time>2024-08-14T10:09:54+02:00</time>
      </trkpt>
      <trkpt lat="42.63812" lon="1.77087">
        <ele>2289</ele>
        <time>2024-08-14T10:11:10+02:00</time>
      </trkpt>
      <trkpt lat="42.63798" lon="1.77143">
        <ele>2279</ele>
        <time>2024-08-14T10:11:58+02:00</time>
      </trkpt>
      <trkpt lat="42.63772" lon="1.77191">
        <ele>2269</ele>
        <time>2024-08-14T10:12:42+02:00</time>
      </trkpt>
      <trkpt lat="42.63746" lon="1.77234">
        <ele>2260</ele>
        <time>2024-08-14T10:13:30+02:00</time>
      </trkpt>
      <trkpt lat="42.63724" lon="1.77283">
        <ele>2257</ele>
        <time>2024-08-14T10:14:25+02:00</time>
      </trkpt>
      <trkpt lat="42.63728" lon="1.77342">
        <ele>2252</ele>
        <time>2024-08-14T10:15:31+02:00</time>
      </trkpt>
      <trkpt lat="42.6374" lon="1.77399">
        <ele>2246</ele>
        <time>2024-08-14T10:16:37+02:00</time>
      </trkpt>
      <trkpt lat="42.63748" lon="1.77453">
        <ele>2243</ele>
        <time>2024-08-14T10:17:13+02:00</time>
      </trkpt>
      <trkpt lat="42.63758" lon="1.7751">
        <ele>2242</ele>
        <time>2024-08-14T10:17:49+02:00</time>
      </trkpt>
      <trkpt lat="42.63778" lon="1.77575">
        <ele>2237</ele>
        <time>2024-08-14T10:18:49+02:00</time>
      </trkpt>
      <trkpt lat="42.63814" lon="1.77609">
        <ele>2233</ele>
        <time>2024-08-14T10:20:47+02:00</time>
      </trkpt>
      <trkpt lat="42.63821" lon="1.7769">
        <ele>2226</ele>
        <time>2024-08-14T10:21:01+02:00</time>
      </trkpt>
      <trkpt lat="42.63829" lon="1.77764">
        <ele>2219</ele>
        <time>2024-08-14T10:21:49+02:00</time>
      </trkpt>
      <trkpt lat="42.63819" lon="1.77826">
        <ele>2212</ele>
        <time>2024-08-14T10:22:43+02:00</time>
      </trkpt>
      <trkpt lat="42.6382" lon="1.77893">
        <ele>2203</ele>
        <time>2024-08-14T10:23:37+02:00</time>
      </trkpt>
      <trkpt lat="42.63827" lon="1.77953">
        <ele>2197</ele>
        <time>2024-08-14T10:24:32+02:00</time>
      </trkpt>
      <trkpt lat="42.6381" lon="1.78013">
        <ele>2184</ele>
        <time>2024-08-14T10:25:13+02:00</time>
      </trkpt>
      <trkpt lat="42.63782" lon="1.78055">
        <ele>2170</ele>
        <time>2024-08-14T10:26:32+02:00</time>
      </trkpt>
      <trkpt lat="42.63768" lon="1.7811">
        <ele>2161</ele>
        <time>2024-08-14T10:27:25+02:00</time>
      </trkpt>
      <trkpt lat="42.63767" lon="1.78173">
        <ele>2145</ele>
        <time>2024-08-14T10:28:23+02:00</time>
      </trkpt>
      <trkpt lat="42.63751" lon="1.78225">
        <ele>2131</ele>
        <time>2024-08-14T10:29:53+02:00</time>
      </trkpt>
      <trkpt lat="42.63735" lon="1.78278">
        <ele>2116</ele>
        <time>2024-08-14T10:31:11+02:00</time>
      </trkpt>
      <trkpt lat="42.63694" lon="1.78302">
        <ele>2100</ele>
        <time>2024-08-14T10:32:51+02:00</time>
      </trkpt>
      <trkpt lat="42.63667" lon="1.78346">
        <ele>2084</ele>
        <time>2024-08-14T10:33:43+02:00</time>
      </trkpt>
      <trkpt lat="42.63637" lon="1.78391">
        <ele>2068</ele>
        <time>2024-08-14T10:34:37+02:00</time>
      </trkpt>
      <trkpt lat="42.63611" lon="1.78442">
        <ele>2053</ele>
        <time>2024-08-14T10:35:20+02:00</time>
      </trkpt>
      <trkpt lat="42.63583" lon="1.78485">
        <ele>2040</ele>
        <time>2024-08-14T10:36:02+02:00</time>
      </trkpt>
      <trkpt lat="42.63566" lon="1.78538">
        <ele>2024</ele>
        <time>2024-08-14T10:36:56+02:00</time>
      </trkpt>
      <trkpt lat="42.63576" lon="1.78595">
        <ele>2009</ele>
        <time>2024-08-14T10:38:37+02:00</time>
      </trkpt>
      <trkpt lat="42.63568" lon="1.78649">
        <ele>1998</ele>
        <time>2024-08-14T10:39:55+02:00</time>
      </trkpt>
      <trkpt lat="42.63566" lon="1.78707">
        <ele>1988</ele>
        <time>2024-08-14T10:41:32+02:00</time>
      </trkpt>
      <trkpt lat="42.63547" lon="1.78765">
        <ele>1982</ele>
        <time>2024-08-14T10:42:43+02:00</time>
      </trkpt>
      <trkpt lat="42.63572" lon="1.78819">
        <ele>1973</ele>
        <time>2024-08-14T10:44:02+02:00</time>
      </trkpt>
      <trkpt lat="42.63604" lon="1.78858">
        <ele>1965</ele>
        <time>2024-08-14T10:44:49+02:00</time>
      </trkpt>
      <trkpt lat="42.63632" lon="1.78907">
        <ele>1958</ele>
        <time>2024-08-14T10:45:37+02:00</time>
      </trkpt>
      <trkpt lat="42.63637" lon="1.78963">
        <ele>1947</ele>
        <time>2024-08-14T10:46:37+02:00</time>
      </trkpt>
      <trkpt lat="42.63651" lon="1.7902">
        <ele>1932</ele>
        <time>2024-08-14T10:47:25+02:00</time>
      </trkpt>
      <trkpt lat="42.63678" lon="1.79069">
        <ele>1916</ele>
        <time>2024-08-14T10:48:32+02:00</time>
      </trkpt>
      <trkpt lat="42.63702" lon="1.79132">
        <ele>1901</ele>
        <time>2024-08-14T10:49:27+02:00</time>
      </trkpt>
      <trkpt lat="42.63697" lon="1.79189">
        <ele>1881</ele>
        <time>2024-08-14T10:51:47+02:00</time>
      </trkpt>
      <trkpt lat="42.63715" lon="1.79244">
        <ele>1861</ele>
        <time>2024-08-14T10:53:03+02:00</time>
      </trkpt>
      <trkpt lat="42.63751" lon="1.79276">
        <ele>1841</ele>
        <time>2024-08-14T10:54:10+02:00</time>
      </trkpt>
      <trkpt lat="42.63789" lon="1.79302">
        <ele>1822</ele>
        <time>2024-08-14T10:55:40+02:00</time>
      </trkpt>
      <trkpt lat="42.63757" lon="1.79338">
        <ele>1805</ele>
        <time>2024-08-14T10:57:10+02:00</time>
      </trkpt>
      <trkpt lat="42.63774" lon="1.79389">
        <ele>1788</ele>
        <time>2024-08-14T10:59:27+02:00</time>
      </trkpt>
      <trkpt lat="42.63796" lon="1.79442">
        <ele>1772</ele>
        <time>2024-08-14T11:01:26+02:00</time>
      </trkpt>
      <trkpt lat="42.63784" lon="1.79496">
        <ele>1760</ele>
        <time>2024-08-14T11:03:10+02:00</time>
      </trkpt>
      <trkpt lat="42.63743" lon="1.79492">
        <ele>1748</ele>
        <time>2024-08-14T11:03:52+02:00</time>
      </trkpt>
      <trkpt lat="42.63767" lon="1.79543">
        <ele>1740</ele>
        <time>2024-08-14T11:05:45+02:00</time>
      </trkpt>
      <trkpt lat="42.63794" lon="1.79589">
        <ele>1732</ele>
        <time>2024-08-14T11:06:32+02:00</time>
      </trkpt>
      <trkpt lat="42.63814" lon="1.79641">
        <ele>1725</ele>
        <time>2024-08-14T11:08:15+02:00</time>
      </trkpt>
      <trkpt lat="42.63815" lon="1.79704">
        <ele>1719</ele>
        <time>2024-08-14T11:09:09+02:00</time>
      </trkpt>
      <trkpt lat="42.63843" lon="1.79752">
        <ele>1714</ele>
        <time>2024-08-14T11:09:57+02:00</time>
      </trkpt>
      <trkpt lat="42.63851" lon="1.79807">
        <ele>1711</ele>
        <time>2024-08-14T11:10:33+02:00</time>
      </trkpt>
      <trkpt lat="42.63896" lon="1.79813">
        <ele>1707</ele>
        <time>2024-08-14T11:29:21+02:00</time>
      </trkpt>
      <trkpt lat="42.63918" lon="1.79863">
        <ele>1706</ele>
        <time>2024-08-14T11:29:57+02:00</time>
      </trkpt>
      <trkpt lat="42.63959" lon="1.79888">
        <ele>1704</ele>
        <time>2024-08-14T11:30:33+02:00</time>
      </trkpt>
      <trkpt lat="42.64" lon="1.79904">
        <ele>1698</ele>
        <time>2024-08-14T11:31:09+02:00</time>
      </trkpt>
      <trkpt lat="42.64035" lon="1.79943">
        <ele>1697</ele>
        <time>2024-08-14T11:31:57+02:00</time>
      </trkpt>
      <trkpt lat="42.64062" lon="1.79993">
        <ele>1697</ele>
        <time>2024-08-14T11:32:33+02:00</time>
      </trkpt>
      <trkpt lat="42.64105" lon="1.80019">
        <ele>1692</ele>
        <time>2024-08-14T11:33:27+02:00</time>
      </trkpt>
      <trkpt lat="42.64143" lon="1.80051">
        <ele>1688</ele>
        <time>2024-08-14T11:34:21+02:00</time>
      </trkpt>
      <trkpt lat="42.64177" lon="1.80088">
        <ele>1681</ele>
        <time>2024-08-14T11:35:09+02:00</time>
      </trkpt>
      <trkpt lat="42.64199" lon="1.8014">
        <ele>1673</ele>
        <time>2024-08-14T11:36:15+02:00</time>
      </trkpt>
      <trkpt lat="42.64219" lon="1.8019">
        <ele>1666</ele>
        <time>2024-08-14T11:36:57+02:00</time>
      </trkpt>
      <trkpt lat="42.64261" lon="1.80215">
        <ele>1655</ele>
        <time>2024-08-14T11:37:51+02:00</time>
      </trkpt>
      <trkpt lat="42.64292" lon="1.80252">
        <ele>1651</ele>
        <time>2024-08-14T11:38:58+02:00</time>
      </trkpt>
      <trkpt lat="42.64325" lon="1.80291">
        <ele>1647</ele>
        <time>2024-08-14T11:39:52+02:00</time>
      </trkpt>
      <trkpt lat="42.64356" lon="1.8034">
        <ele>1640</ele>
        <time>2024-08-14T11:40:45+02:00</time>
      </trkpt>
      <trkpt lat="42.64387" lon="1.80378">
        <ele>1634</ele>
        <time>2024-08-14T11:41:34+02:00</time>
      </trkpt>
      <trkpt lat="42.64419" lon="1.80411">
        <ele>1629</ele>
        <time>2024-08-14T11:42:16+02:00</time>
      </trkpt>
      <trkpt lat="42.64452" lon="1.8046">
        <ele>1626</ele>
        <time>2024-08-14T11:43:22+02:00</time>
      </trkpt>
      <trkpt lat="42.64461" lon="1.80519">
        <ele>1622</ele>
        <time>2024-08-14T11:44:34+02:00</time>
      </trkpt>
      <trkpt lat="42.64473" lon="1.80575">
        <ele>1615</ele>
        <time>2024-08-14T11:45:22+02:00</time>
      </trkpt>
      <trkpt lat="42.64509" lon="1.80611">
        <ele>1609</ele>
        <time>2024-08-14T11:46:16+02:00</time>
      </trkpt>
      <trkpt lat="42.64535" lon="1.80654">
        <ele>1603</ele>
        <time>2024-08-14T11:46:58+02:00</time>
      </trkpt>
      <trkpt lat="42.64543" lon="1.80709">
        <ele>1598</ele>
        <time>2024-08-14T11:47:35+02:00</time>
      </trkpt>
      <trkpt lat="42.64554" lon="1.80766">
        <ele>1591</ele>
        <time>2024-08-14T11:48:17+02:00</time>
      </trkpt>
      <trkpt lat="42.64589" lon="1.80797">
        <ele>1582</ele>
        <time>2024-08-14T11:49:00+02:00</time>
      </trkpt>
      <trkpt lat="42.64652" lon="1.80891">
        <ele>1572</ele>
        <time>2024-08-14T11:51:24+02:00</time>
      </trkpt>
      <trkpt lat="42.64672" lon="1.80943">
        <ele>1562</ele>
        <time>2024-08-14T11:51:48+02:00</time>
      </trkpt>
      <trkpt lat="42.64698" lon="1.80986">
        <ele>1553</ele>
        <time>2024-08-14T11:52:37+02:00</time>
      </trkpt>
      <trkpt lat="42.64731" lon="1.81027">
        <ele>1541</ele>
        <time>2024-08-14T11:53:10+02:00</time>
      </trkpt>
      <trkpt lat="42.64771" lon="1.81061">
        <ele>1530</ele>
        <time>2024-08-14T11:54:15+02:00</time>
      </trkpt>
      <trkpt lat="42.64812" lon="1.8105">
        <ele>1521</ele>
        <time>2024-08-14T11:55:22+02:00</time>
      </trkpt>
      <trkpt lat="42.64841" lon="1.81102">
        <ele>1512</ele>
        <time>2024-08-14T11:56:22+02:00</time>
      </trkpt>
      <trkpt lat="42.6487" lon="1.81145">
        <ele>1508</ele>
        <time>2024-08-14T11:57:16+02:00</time>
      </trkpt>
      <trkpt lat="42.64896" lon="1.81191">
        <ele>1501</ele>
        <time>2024-08-14T11:58:11+02:00</time>
      </trkpt>
      <trkpt lat="42.649" lon="1.81247">
        <ele>1493</ele>
        <time>2024-08-14T12:01:13+02:00</time>
      </trkpt>
      <trkpt lat="42.64946" lon="1.813">
        <ele>1486</ele>
        <time>2024-08-14T12:02:06+02:00</time>
      </trkpt>
      <trkpt lat="42.64983" lon="1.81343">
        <ele>1479</ele>
        <time>2024-08-14T12:02:48+02:00</time>
      </trkpt>
      <trkpt lat="42.65024" lon="1.81368">
        <ele>1473</ele>
        <time>2024-08-14T12:03:29+02:00</time>
      </trkpt>
      <trkpt lat="42.6505" lon="1.81415">
        <ele>1467</ele>
        <time>2024-08-14T12:04:13+02:00</time>
      </trkpt>
      <trkpt lat="42.65079" lon="1.81459">
        <ele>1462</ele>
        <time>2024-08-14T12:05:01+02:00</time>
      </trkpt>
      <trkpt lat="42.65096" lon="1.81512">
        <ele>1455</ele>
        <time>2024-08-14T12:05:42+02:00</time>
      </trkpt>
      <trkpt lat="42.65079" lon="1.81565">
        <ele>1444</ele>
        <time>2024-08-14T12:07:02+02:00</time>
      </trkpt>
      <trkpt lat="42.65138" lon="1.81611">
        <ele>1432</ele>
        <time>2024-08-14T12:08:32+02:00</time>
      </trkpt>
      <trkpt lat="42.65157" lon="1.81663">
        <ele>1419</ele>
        <time>2024-08-14T12:10:11+02:00</time>
      </trkpt>
      <trkpt lat="42.65125" lon="1.81709">
        <ele>1407</ele>
        <time>2024-08-14T12:12:15+02:00</time>
      </trkpt>
      <trkpt lat="42.6514" lon="1.81772">
        <ele>1391</ele>
        <time>2024-08-14T12:12:45+02:00</time>
      </trkpt>
      <trkpt lat="42.65171" lon="1.8182">
        <ele>1372</ele>
        <time>2024-08-14T12:13:38+02:00</time>
      </trkpt>
      <trkpt lat="42.6521" lon="1.8185">
        <ele>1355</ele>
        <time>2024-08-14T12:14:28+02:00</time>
      </trkpt>
      <trkpt lat="42.65221" lon="1.81906">
        <ele>1339</ele>
        <time>2024-08-14T12:15:21+02:00</time>
      </trkpt>
      <trkpt lat="42.65087" lon="1.81994">
        <ele>1324</ele>
        <time>2024-08-14T12:17:05+02:00</time>
      </trkpt>
      <trkpt lat="42.65151" lon="1.82">
        <ele>1308</ele>
        <time>2024-08-14T12:17:52+02:00</time>
      </trkpt>
      <trkpt lat="42.65193" lon="1.8199">
        <ele>1292</ele>
        <time>2024-08-14T12:18:09+02:00</time>
      </trkpt>
      <trkpt lat="42.65193" lon="1.82049">
        <ele>1279</ele>
        <time>2024-08-14T12:20:49+02:00</time>
      </trkpt>
      <trkpt lat="42.65223" lon="1.82121">
        <ele>1268</ele>
        <time>2024-08-14T12:21:40+02:00</time>
      </trkpt>
      <trkpt lat="42.65257" lon="1.82177">
        <ele>1260</ele>
        <time>2024-08-14T12:22:34+02:00</time>
      </trkpt>
      <trkpt lat="42.65284" lon="1.82219">
        <ele>1247</ele>
        <time>2024-08-14T12:23:09+02:00</time>
      </trkpt>
      <trkpt lat="42.65307" lon="1.82285">
        <ele>1238</ele>
        <time>2024-08-14T12:23:57+02:00</time>
      </trkpt>
      <trkpt lat="42.65322" lon="1.82343">
        <ele>1235</ele>
        <time>2024-08-14T12:24:48+02:00</time>
      </trkpt>
      <trkpt lat="42.65348" lon="1.82405">
        <ele>1231</ele>
        <time>2024-08-14T12:25:39+02:00</time>
      </trkpt>
      <trkpt lat="42.65367" lon="1.82461">
        <ele>1229</ele>
        <time>2024-08-14T12:26:24+02:00</time>
      </trkpt>
      <trkpt lat="42.65396" lon="1.82506">
        <ele>1226</ele>
        <time>2024-08-14T12:27:07+02:00</time>
      </trkpt>
      <trkpt lat="42.65414" lon="1.82558">
        <ele>1226</ele>
        <time>2024-08-14T12:27:45+02:00</time>
      </trkpt>
      <trkpt lat="42.6542" lon="1.82621">
        <ele>1226</ele>
        <time>2024-08-14T12:28:24+02:00</time>
      </trkpt>
      <trkpt lat="42.65426" lon="1.82676">
        <ele>1226</ele>
        <time>2024-08-14T12:28:54+02:00</time>
      </trkpt>
      <trkpt lat="42.65432" lon="1.82731">
        <ele>1223</ele>
        <time>2024-08-14T12:29:30+02:00</time>
      </trkpt>
      <trkpt lat="42.65432" lon="1.82793">
        <ele>1217</ele>
        <time>2024-08-14T12:30:14+02:00</time>
      </trkpt>
      <trkpt lat="42.6543" lon="1.82854">
        <ele>1211</ele>
        <time>2024-08-14T12:31:00+02:00</time>
      </trkpt>
      <trkpt lat="42.65424" lon="1.82911">
        <ele>1206</ele>
        <time>2024-08-14T12:32:00+02:00</time>
      </trkpt>
      <trkpt lat="42.65462" lon="1.82938">
        <ele>1197</ele>
        <time>2024-08-14T12:33:06+02:00</time>
      </trkpt>
      <trkpt lat="42.65507" lon="1.82962">
        <ele>1186</ele>
        <time>2024-08-14T12:33:55+02:00</time>
      </trkpt>
      <trkpt lat="42.65499" lon="1.83018">
        <ele>1173</ele>
        <time>2024-08-14T12:35:07+02:00</time>
      </trkpt>
      <trkpt lat="42.65523" lon="1.83071">
        <ele>1158</ele>
        <time>2024-08-14T12:36:01+02:00</time>
      </trkpt>
      <trkpt lat="42.65532" lon="1.83125">
        <ele>1147</ele>
        <time>2024-08-14T12:36:42+02:00</time>
      </trkpt>
      <trkpt lat="42.65514" lon="1.83186">
        <ele>1137</ele>
        <time>2024-08-14T12:37:31+02:00</time>
      </trkpt>
      <trkpt lat="42.65542" lon="1.83234">
        <ele>1128</ele>
        <time>2024-08-14T12:38:19+02:00</time>
      </trkpt>
      <trkpt lat="42.65547" lon="1.83289">
        <ele>1120</ele>
        <time>2024-08-14T12:39:00+02:00</time>
      </trkpt>
      <trkpt lat="42.65561" lon="1.83358">
        <ele>1113</ele>
        <time>2024-08-14T12:39:52+02:00</time>
      </trkpt>
      <trkpt lat="42.65568" lon="1.83417">
        <ele>1110</ele>
        <time>2024-08-14T12:40:37+02:00</time>
      </trkpt>
      <trkpt lat="42.65598" lon="1.83455">
        <ele>1108</ele>
        <time>2024-08-14T12:41:25+02:00</time>
      </trkpt>
      <trkpt lat="42.656" lon="1.83522">
        <ele>1110</ele>
        <time>2024-08-14T12:42:40+02:00</time>
      </trkpt>
      <trkpt lat="42.65622" lon="1.8357">
        <ele>1110</ele>
        <time>2024-08-14T12:44:05+02:00</time>
      </trkpt>
      <trkpt lat="42.65653" lon="1.83608">
        <ele>1113</ele>
        <time>2024-08-14T12:44:47+02:00</time>
      </trkpt>
      <trkpt lat="42.65695" lon="1.8361">
        <ele>1117</ele>
        <time>2024-08-14T12:45:30+02:00</time>
      </trkpt>
      <trkpt lat="42.65711" lon="1.83674">
        <ele>1117</ele>
        <time>2024-08-14T12:46:23+02:00</time>
      </trkpt>
      <trkpt lat="42.65717" lon="1.83741">
        <ele>1123</ele>
        <time>2024-08-14T12:47:11+02:00</time>
      </trkpt>
      <trkpt lat="42.65758" lon="1.83768">
        <ele>1126</ele>
        <time>2024-08-14T12:48:01+02:00</time>
      </trkpt>
      <trkpt lat="42.65789" lon="1.83817">
        <ele>1130</ele>
        <time>2024-08-14T12:48:38+02:00</time>
      </trkpt>
      <trkpt lat="42.65782" lon="1.83877">
        <ele>1136</ele>
        <time>2024-08-14T12:49:22+02:00</time>
      </trkpt>
      <trkpt lat="42.65745" lon="1.8391">
        <ele>1140</ele>
        <time>2024-08-14T12:50:00+02:00</time>
      </trkpt>
      <trkpt lat="42.65768" lon="1.8397">
        <ele>1147</ele>
        <time>2024-08-14T12:51:12+02:00</time>
      </trkpt>
      <trkpt lat="42.65808" lon="1.84016">
        <ele>1154</ele>
        <time>2024-08-14T12:52:01+02:00</time>
      </trkpt>
      <trkpt lat="42.6586" lon="1.84002">
        <ele>1162</ele>
        <time>2024-08-14T12:52:47+02:00</time>
      </trkpt>
      <trkpt lat="42.65831" lon="1.84042">
        <ele>1169</ele>
        <time>2024-08-14T12:53:58+02:00</time>
      </trkpt>
      <trkpt lat="42.65799" lon="1.84085">
        <ele>1179</ele>
        <time>2024-08-14T12:54:40+02:00</time>
      </trkpt>
      <trkpt lat="42.65762" lon="1.84118">
        <ele>1163</ele>
        <time>2024-08-14T12:55:21+02:00</time>
      </trkpt>
      <trkpt lat="42.65728" lon="1.84156">
        <ele>1174</ele>
        <time>2024-08-14T12:56:03+02:00</time>
      </trkpt>
      <trkpt lat="42.65705" lon="1.8421">
        <ele>1184</ele>
        <time>2024-08-14T12:56:41+02:00</time>
      </trkpt>
      <trkpt lat="42.65662" lon="1.84243">
        <ele>1186</ele>
        <time>2024-08-14T12:57:28+02:00</time>
      </trkpt>
      <trkpt lat="42.6563" lon="1.84289">
        <ele>1188</ele>
        <time>2024-08-14T12:58:09+02:00</time>
      </trkpt>
      <trkpt lat="42.65623" lon="1.84299">
        <ele>1141</ele>
        <time>2024-08-14T13:00:48+02:00</time>
        <extensions>
          <visugpx:TrkExtension xmlns:visugpx="https://www.visugpx.com/editgpx/">
            <visugpx:node>1</visugpx:node>
            </visugpx:TrkExtension>
        </extensions>
      </trkpt>
    </trkseg>
  </trk>
</gpx>